Aviation Digital Data Service (ADDS)

Output produced by METARs form (2339 UTC 26 February 2020)
found at http://www.aviationweather.gov/metar/data/
 
EGPD 262320Z AUTO 23008KT 9999 NCD 00/M04 Q0994
EGPD 262250Z AUTO VRB03KT 9999 NCD M00/M04 Q0995 NOSIG
TAF EGPD 262301Z 2700/2724 24009KT CAVOK 
     PROB40 
     TEMPO 2713/2721 28016G28KT